createdAt,value
2018-03-02T00:01:02.939Z,1019.44
2018-03-02T00:02:29.781Z,1019.41
2018-03-02T00:03:56.437Z,1019.42
2018-03-02T00:05:23.383Z,1019.37
2018-03-02T00:06:50.256Z,1019.39
2018-03-02T00:08:17.072Z,1019.40
2018-03-02T00:09:43.789Z,1019.38
2018-03-02T00:11:10.569Z,1019.31
2018-03-02T00:12:37.504Z,1019.31
2018-03-02T00:14:04.183Z,1019.31
2018-03-02T00:15:31.237Z,1019.28
2018-03-02T00:16:58.031Z,1019.27
2018-03-02T00:18:24.803Z,1019.27
2018-03-02T00:19:51.798Z,1019.27
2018-03-02T00:21:18.356Z,1019.25
2018-03-02T00:22:45.199Z,1019.27
2018-03-02T00:24:12.052Z,1019.27
2018-03-02T00:25:38.923Z,1019.24
2018-03-02T00:27:05.873Z,1019.24
2018-03-02T00:28:32.668Z,1019.25
2018-03-02T00:30:00.403Z,1019.25
2018-03-02T00:31:26.260Z,1019.25
2018-03-02T00:32:53.165Z,1019.23
2018-03-02T00:34:20.061Z,1019.23
2018-03-02T00:35:46.844Z,1019.19
2018-03-02T00:37:16.695Z,1019.19
2018-03-02T00:38:41.281Z,1019.16
2018-03-02T00:40:07.147Z,1019.18
2018-03-02T00:41:33.823Z,1019.17
2018-03-02T00:43:00.705Z,1019.16
2018-03-02T00:44:27.567Z,1019.13
2018-03-02T00:45:54.420Z,1019.09
2018-03-02T00:47:24.140Z,1019.06
2018-03-02T00:48:47.974Z,1019.06
2018-03-02T00:50:15.856Z,1019.06
2018-03-02T00:51:49.486Z,1019.04
2018-03-02T00:53:08.216Z,1019.07
2018-03-02T00:54:34.831Z,1019.07
2018-03-02T00:56:02.461Z,1019.04
2018-03-02T00:57:28.301Z,1019.02
2018-03-02T00:58:55.200Z,1019.01
2018-03-02T01:00:21.970Z,1019.02
2018-03-02T01:01:48.606Z,1019.00
2018-03-02T01:03:15.349Z,1018.99
2018-03-02T01:04:42.292Z,1018.96
2018-03-02T01:06:09.026Z,1018.93
2018-03-02T01:07:36.882Z,1018.93
2018-03-02T01:09:03.356Z,1018.93
2018-03-02T01:10:29.316Z,1018.93
2018-03-02T01:11:56.167Z,1018.91
2018-03-02T01:13:24.002Z,1018.91
2018-03-02T01:14:59.743Z,1018.88
2018-03-02T01:16:16.607Z,1018.88
2018-03-02T01:17:43.073Z,1018.91
2018-03-02T01:19:09.960Z,1018.88
2018-03-02T01:20:36.652Z,1018.83
2018-03-02T01:22:03.318Z,1018.82
2018-03-02T01:23:29.925Z,1018.78
2018-03-02T01:24:59.675Z,1018.74
2018-03-02T01:26:24.370Z,1018.70
2018-03-02T01:27:50.141Z,1018.64
2018-03-02T01:29:16.816Z,1018.61
2018-03-02T01:30:44.571Z,1018.58
2018-03-02T01:32:10.209Z,1018.56
2018-03-02T01:33:36.889Z,1018.53
2018-03-02T01:35:03.600Z,1018.50
2018-03-02T01:36:31.380Z,1018.46
2018-03-02T01:37:58.143Z,1018.41
2018-03-02T01:39:24.131Z,1018.40
2018-03-02T01:40:50.636Z,1018.39
2018-03-02T01:42:17.483Z,1018.36
2018-03-02T01:43:44.039Z,1018.40
2018-03-02T01:45:10.802Z,1018.39
2018-03-02T01:46:37.297Z,1018.34
2018-03-02T01:48:04.028Z,1018.34
2018-03-02T01:49:30.677Z,1018.32
2018-03-02T01:50:57.650Z,1018.30
2018-03-02T01:52:24.372Z,1018.29
2018-03-02T01:53:50.855Z,1018.29
2018-03-02T01:55:17.757Z,1018.27
2018-03-02T01:56:44.458Z,1018.23
2018-03-02T01:58:11.234Z,1018.21
2018-03-02T01:59:39.041Z,1018.19
2018-03-02T02:01:04.795Z,1018.16
2018-03-02T02:02:31.520Z,1018.15
2018-03-02T02:03:58.116Z,1018.12
2018-03-02T02:05:25.015Z,1018.09
2018-03-02T02:06:51.899Z,1018.02
2018-03-02T02:08:18.611Z,1018.00
2018-03-02T02:09:45.244Z,1017.99
2018-03-02T02:11:11.799Z,1017.97
2018-03-02T02:12:38.516Z,1017.97
2018-03-02T02:14:05.048Z,1017.95
2018-03-02T02:15:31.816Z,1017.96
2018-03-02T02:16:58.305Z,1017.94
2018-03-02T02:18:24.965Z,1017.91
2018-03-02T02:19:51.659Z,1017.93
2018-03-02T02:21:18.556Z,1017.89
2018-03-02T02:22:45.470Z,1017.88
2018-03-02T02:24:12.174Z,1017.86
2018-03-02T02:25:38.725Z,1017.85
2018-03-02T02:27:05.304Z,1017.88
2018-03-02T02:28:33.222Z,1017.86
2018-03-02T02:29:59.061Z,1017.86
2018-03-02T02:31:25.410Z,1017.86
2018-03-02T02:32:51.926Z,1017.84
2018-03-02T02:34:18.553Z,1017.80
2018-03-02T02:35:45.182Z,1017.80
2018-03-02T02:37:12.899Z,1017.80
2018-03-02T02:38:38.722Z,1017.76
2018-03-02T02:40:05.352Z,1017.74
2018-03-02T02:41:32.065Z,1017.73
2018-03-02T02:42:58.881Z,1017.70
2018-03-02T02:44:25.463Z,1017.67
2018-03-02T02:45:52.113Z,1017.67
2018-03-02T02:47:19.625Z,1017.70
2018-03-02T02:48:45.443Z,1017.67
2018-03-02T02:50:12.105Z,1017.67
2018-03-02T02:51:39.895Z,1017.68
2018-03-02T02:53:05.637Z,1017.67
2018-03-02T02:54:32.110Z,1017.65
2018-03-02T02:55:58.774Z,1017.60
2018-03-02T02:57:26.462Z,1017.55
2018-03-02T02:58:52.230Z,1017.55
2018-03-02T03:00:19.038Z,1017.54
2018-03-02T03:01:55.577Z,1017.48
2018-03-02T03:03:22.105Z,1017.49
2018-03-02T03:04:48.963Z,1017.47
2018-03-02T03:06:16.660Z,1017.50
2018-03-02T03:07:43.420Z,1017.48
2018-03-02T03:09:10.159Z,1017.46
2018-03-02T03:10:35.898Z,1017.41
2018-03-02T03:12:02.446Z,1017.38
2018-03-02T03:13:29.287Z,1017.39
2018-03-02T03:14:55.710Z,1017.41
2018-03-02T03:16:22.556Z,1017.42
2018-03-02T03:17:50.363Z,1017.39
2018-03-02T03:19:16.100Z,1017.39
2018-03-02T03:20:43.012Z,1017.39
2018-03-02T03:22:09.557Z,1017.34
2018-03-02T03:23:36.172Z,1017.31
2018-03-02T03:25:02.980Z,1017.31
2018-03-02T03:26:30.622Z,1017.29
2018-03-02T03:27:56.487Z,1017.27
2018-03-02T03:29:24.323Z,1017.25
2018-03-02T03:30:50.268Z,1017.21
2018-03-02T03:32:16.832Z,1017.18
2018-03-02T03:33:43.576Z,1017.17
2018-03-02T03:35:13.281Z,1017.15
2018-03-02T03:36:37.039Z,1017.15
2018-03-02T03:38:03.764Z,1017.14
2018-03-02T03:39:30.244Z,1017.12
2018-03-02T03:40:57.897Z,1017.10
2018-03-02T03:42:23.592Z,1017.06
2018-03-02T03:43:51.105Z,1017.03
2018-03-02T03:45:16.993Z,1017.04
2018-03-02T03:46:43.601Z,1017.00
2018-03-02T03:48:11.291Z,1017.01
2018-03-02T03:49:37.073Z,1017.03
2018-03-02T03:51:03.774Z,1017.01
2018-03-02T03:52:31.350Z,1016.99
2018-03-02T03:53:57.126Z,1017.02
2018-03-02T03:55:24.914Z,1017.02
2018-03-02T03:56:50.663Z,1017.00
2018-03-02T03:58:25.329Z,1017.00
2018-03-02T03:59:44.051Z,1016.98
2018-03-02T04:01:11.039Z,1016.98
2018-03-02T04:02:37.742Z,1016.94
2018-03-02T04:04:04.565Z,1016.93
2018-03-02T04:05:31.445Z,1016.90
2018-03-02T04:06:58.244Z,1016.87
2018-03-02T04:08:25.071Z,1016.89
2018-03-02T04:09:51.680Z,1016.87
2018-03-02T04:11:18.429Z,1016.84
2018-03-02T04:12:45.082Z,1016.85
2018-03-02T04:14:11.794Z,1016.83
2018-03-02T04:15:38.567Z,1016.80
2018-03-02T04:17:05.182Z,1016.75
2018-03-02T04:18:31.919Z,1016.72
2018-03-02T04:19:58.504Z,1016.68
2018-03-02T04:21:25.286Z,1016.67
2018-03-02T04:22:52.029Z,1016.65
2018-03-02T04:24:18.615Z,1016.66
2018-03-02T04:25:45.306Z,1016.67
2018-03-02T04:27:12.042Z,1016.67
2018-03-02T04:28:38.786Z,1016.63
2018-03-02T04:30:05.337Z,1016.61
2018-03-02T04:31:32.151Z,1016.60
2018-03-02T04:32:59.158Z,1016.60
2018-03-02T04:34:26.715Z,1016.60
2018-03-02T04:35:52.352Z,1016.58
2018-03-02T04:37:19.183Z,1016.56
2018-03-02T04:38:46.281Z,1016.52
2018-03-02T04:40:12.965Z,1016.49
2018-03-02T04:41:39.751Z,1016.48
2018-03-02T04:43:06.313Z,1016.46
2018-03-02T04:44:32.993Z,1016.45
2018-03-02T04:46:00.340Z,1016.46
2018-03-02T04:47:26.102Z,1016.42
2018-03-02T04:48:52.890Z,1016.37
2018-03-02T04:50:19.353Z,1016.31
2018-03-02T04:51:47.135Z,1016.27
2018-03-02T04:53:12.852Z,1016.23
2018-03-02T04:54:39.681Z,1016.17
2018-03-02T04:56:07.249Z,1016.15
2018-03-02T04:57:32.893Z,1016.11
2018-03-02T04:58:59.578Z,1016.10
2018-03-02T05:00:26.099Z,1016.08
2018-03-02T05:01:53.103Z,1016.06
2018-03-02T05:03:19.773Z,1016.09
2018-03-02T05:04:46.397Z,1016.10
2018-03-02T05:06:13.098Z,1016.08
2018-03-02T05:07:39.926Z,1016.09
2018-03-02T05:09:09.340Z,1016.08
2018-03-02T05:10:33.145Z,1016.07
2018-03-02T05:11:59.700Z,1016.08
2018-03-02T05:13:26.506Z,1016.06
2018-03-02T05:14:53.002Z,1016.11
2018-03-02T05:16:20.452Z,1016.12
2018-03-02T05:17:46.320Z,1016.11
2018-03-02T05:19:13.083Z,1016.10
2018-03-02T05:20:39.799Z,1016.11
2018-03-02T05:22:06.661Z,1016.10
2018-03-02T05:23:33.164Z,1016.06
2018-03-02T05:25:00.916Z,1016.04
2018-03-02T05:26:26.537Z,1016.01
2018-03-02T05:27:53.165Z,1016.01
2018-03-02T05:29:19.793Z,1016.01
2018-03-02T05:30:46.633Z,1015.97
2018-03-02T05:32:14.567Z,1015.93
2018-03-02T05:33:40.415Z,1015.91
2018-03-02T05:35:07.021Z,1015.91
2018-03-02T05:36:33.722Z,1015.88
2018-03-02T05:38:00.665Z,1015.87
2018-03-02T05:39:27.223Z,1015.84
2018-03-02T05:40:54.005Z,1015.83
2018-03-02T05:42:21.699Z,1015.81
2018-03-02T05:43:47.409Z,1015.78
2018-03-02T05:45:14.428Z,1015.76
2018-03-02T05:46:41.171Z,1015.77
2018-03-02T05:48:07.868Z,1015.75
2018-03-02T05:49:34.582Z,1015.75
2018-03-02T05:51:01.217Z,1015.75
2018-03-02T05:52:28.038Z,1015.76
2018-03-02T05:53:54.781Z,1015.75
2018-03-02T05:56:48.881Z,1015.68
2018-03-02T05:58:14.648Z,1015.67
2018-03-02T05:59:41.481Z,1015.68
2018-03-02T06:01:08.187Z,1015.68
2018-03-02T06:02:35.947Z,1015.70
2018-03-02T06:04:02.785Z,1015.70
2018-03-02T06:05:28.519Z,1015.70
2018-03-02T06:06:55.115Z,1015.71
2018-03-02T06:08:22.007Z,1015.68
2018-03-02T06:09:48.700Z,1015.69
2018-03-02T06:11:15.353Z,1015.69
2018-03-02T06:12:42.170Z,1015.70
2018-03-02T06:14:09.009Z,1015.73
2018-03-02T06:15:36.607Z,1015.76
2018-03-02T06:17:02.447Z,1015.75
2018-03-02T06:18:29.343Z,1015.74
2018-03-02T06:20:03.911Z,1015.75
2018-03-02T06:21:22.511Z,1015.75
2018-03-02T06:22:49.362Z,1015.74
2018-03-02T06:24:16.012Z,1015.74
2018-03-02T06:25:42.743Z,1015.75
2018-03-02T06:27:09.520Z,1015.75
2018-03-02T06:28:36.373Z,1015.77
2018-03-02T06:30:02.837Z,1015.80
2018-03-02T06:31:29.622Z,1015.81
2018-03-02T06:32:56.298Z,1015.77
2018-03-02T06:34:23.797Z,1015.75
2018-03-02T06:35:49.454Z,1015.74
2018-03-02T06:37:16.359Z,1015.74
2018-03-02T06:38:42.894Z,1015.75
2018-03-02T06:40:09.476Z,1015.74
2018-03-02T06:41:36.108Z,1015.76
2018-03-02T06:43:10.578Z,1015.76
2018-03-02T06:44:29.019Z,1015.77
2018-03-02T06:45:55.889Z,1015.76
2018-03-02T06:47:22.570Z,1015.75
2018-03-02T06:48:49.324Z,1015.75
2018-03-02T06:50:16.051Z,1015.75
2018-03-02T06:51:42.962Z,1015.73
2018-03-02T06:53:09.857Z,1015.70
2018-03-02T06:54:36.468Z,1015.61
2018-03-02T06:56:03.086Z,1015.54
2018-03-02T06:57:29.652Z,1015.52
2018-03-02T06:58:56.537Z,1015.53
2018-03-02T07:00:23.291Z,1015.54
2018-03-02T07:01:49.805Z,1015.54
2018-03-02T07:03:16.453Z,1015.52
2018-03-02T07:04:43.066Z,1015.52
2018-03-02T07:06:09.891Z,1015.51
2018-03-02T07:07:36.579Z,1015.47
2018-03-02T07:09:02.934Z,1015.45
2018-03-02T07:10:29.905Z,1015.42
2018-03-02T07:11:56.736Z,1015.38
2018-03-02T07:13:23.533Z,1015.38
2018-03-02T07:14:50.224Z,1015.37
2018-03-02T07:16:17.061Z,1015.36
2018-03-02T07:17:43.877Z,1015.36
2018-03-02T07:19:10.811Z,1015.32
2018-03-02T07:20:37.568Z,1015.30
2018-03-02T07:22:04.326Z,1015.23
2018-03-02T07:23:31.243Z,1015.23
2018-03-02T07:24:58.238Z,1015.22
2018-03-02T07:26:24.852Z,1015.20
2018-03-02T07:27:51.502Z,1015.21
2018-03-02T07:29:18.437Z,1015.19
2018-03-02T07:30:45.159Z,1015.16
2018-03-02T07:32:11.845Z,1015.13
2018-03-02T07:33:39.779Z,1015.13
2018-03-02T07:35:05.445Z,1015.12
2018-03-02T07:36:32.326Z,1015.11
2018-03-02T07:37:59.009Z,1015.12
2018-03-02T07:39:26.615Z,1015.13
2018-03-02T07:40:52.442Z,1015.11
2018-03-02T07:42:19.191Z,1015.12
2018-03-02T07:43:46.091Z,1015.13
2018-03-02T07:45:13.946Z,1015.16
2018-03-02T07:46:41.807Z,1015.20
2018-03-02T07:48:06.571Z,1015.18
2018-03-02T07:49:34.172Z,1015.18
2018-03-02T07:51:00.098Z,1015.16
2018-03-02T07:52:27.547Z,1015.13
2018-03-02T07:53:53.222Z,1015.12
2018-03-02T07:55:19.930Z,1015.12
2018-03-02T07:56:46.765Z,1015.11
2018-03-02T07:58:16.483Z,1015.13
2018-03-02T07:59:40.508Z,1015.16
2018-03-02T08:01:07.228Z,1015.15
2018-03-02T08:02:34.211Z,1015.15
2018-03-02T08:04:01.833Z,1015.15
2018-03-02T08:05:27.652Z,1015.14
2018-03-02T08:06:54.413Z,1015.15
2018-03-02T08:08:20.824Z,1015.15
2018-03-02T08:09:47.840Z,1015.13
2018-03-02T08:11:14.628Z,1015.07
2018-03-02T08:12:41.407Z,1015.01
2018-03-02T08:14:08.255Z,1014.96
2018-03-02T08:15:34.817Z,1014.97
2018-03-02T08:17:01.554Z,1014.92
2018-03-02T08:18:29.346Z,1014.88
2018-03-02T08:19:56.252Z,1014.88
2018-03-02T08:21:22.197Z,1014.88
2018-03-02T08:22:50.117Z,1014.85
2018-03-02T08:24:15.811Z,1014.87
2018-03-02T08:25:42.560Z,1014.86
2018-03-02T08:27:09.342Z,1014.84
2018-03-02T08:28:43.949Z,1014.86
2018-03-02T08:30:02.596Z,1014.87
2018-03-02T08:31:29.227Z,1014.86
2018-03-02T08:32:55.985Z,1014.85
2018-03-02T08:34:22.663Z,1014.83
2018-03-02T08:35:49.242Z,1014.80
2018-03-02T08:37:17.078Z,1014.78
2018-03-02T08:38:42.782Z,1014.78
2018-03-02T08:40:09.442Z,1014.75
2018-03-02T08:41:36.115Z,1014.75
2018-03-02T08:43:02.867Z,1014.73
2018-03-02T08:44:29.723Z,1014.72
2018-03-02T08:45:57.442Z,1014.71
2018-03-02T08:47:23.444Z,1014.62
2018-03-02T08:48:50.238Z,1014.60
2018-03-02T08:50:18.105Z,1014.61
2018-03-02T08:51:44.013Z,1014.62
2018-03-02T08:53:10.772Z,1014.58
2018-03-02T08:54:37.489Z,1014.59
2018-03-02T08:56:04.217Z,1014.62
2018-03-02T08:57:31.056Z,1014.62
2018-03-02T08:58:57.716Z,1014.60
2018-03-02T09:00:24.584Z,1014.57
2018-03-02T09:01:51.309Z,1014.59
2018-03-02T09:03:18.234Z,1014.57
2018-03-02T09:04:45.128Z,1014.51
2018-03-02T09:06:12.968Z,1014.46
2018-03-02T09:07:39.070Z,1014.42
2018-03-02T09:09:05.728Z,1014.39
2018-03-02T09:10:32.345Z,1014.36
2018-03-02T09:12:00.052Z,1014.38
2018-03-02T09:13:26.008Z,1014.33
2018-03-02T09:14:52.771Z,1014.35
2018-03-02T09:16:19.502Z,1014.30
2018-03-02T09:17:46.329Z,1014.29
2018-03-02T09:19:12.920Z,1014.26
2018-03-02T09:20:39.719Z,1014.22
2018-03-02T09:22:06.684Z,1014.29
2018-03-02T09:23:33.358Z,1014.22
2018-03-02T09:25:00.015Z,1014.23
2018-03-02T09:26:26.945Z,1014.24
2018-03-02T09:27:53.836Z,1014.18
2018-03-02T09:29:20.623Z,1014.21
2018-03-02T09:30:47.432Z,1014.10
2018-03-02T09:32:14.152Z,1014.04
2018-03-02T09:33:41.191Z,1014.02
2018-03-02T09:35:07.895Z,1014.00
2018-03-02T09:36:34.642Z,1014.00
2018-03-02T09:38:01.497Z,1013.94
2018-03-02T09:39:28.327Z,1013.92
2018-03-02T09:40:55.061Z,1013.88
2018-03-02T09:42:22.045Z,1013.86
2018-03-02T09:43:48.783Z,1013.84
2018-03-02T09:45:15.609Z,1013.84
2018-03-02T09:46:42.510Z,1013.89
2018-03-02T09:48:09.713Z,1013.83
2018-03-02T09:49:36.380Z,1013.78
2018-03-02T09:51:03.209Z,1013.75
2018-03-02T09:52:29.973Z,1013.77
2018-03-02T09:53:56.251Z,1013.69
2018-03-02T09:55:23.220Z,1013.62
2018-03-02T09:56:49.985Z,1013.65
2018-03-02T09:58:16.965Z,1013.64
2018-03-02T09:59:43.868Z,1013.60
2018-03-02T10:01:10.559Z,1013.61
2018-03-02T10:02:37.159Z,1013.58
2018-03-02T10:04:03.754Z,1013.57
2018-03-02T10:05:30.684Z,1013.54
2018-03-02T10:06:57.500Z,1013.55
2018-03-02T10:08:25.364Z,1013.53
2018-03-02T10:09:51.400Z,1013.46
2018-03-02T10:11:18.193Z,1013.50
2018-03-02T10:12:45.044Z,1013.44
2018-03-02T10:14:11.899Z,1013.45
2018-03-02T10:15:38.724Z,1013.43
2018-03-02T10:17:05.445Z,1013.38
2018-03-02T10:18:32.391Z,1013.38
2018-03-02T10:19:59.121Z,1013.35
2018-03-02T10:21:25.922Z,1013.30
2018-03-02T10:22:53.724Z,1013.20
2018-03-02T10:24:19.735Z,1013.20
2018-03-02T10:25:46.561Z,1013.21
2018-03-02T10:27:13.484Z,1013.13
2018-03-02T10:28:40.354Z,1013.18
2018-03-02T10:30:07.304Z,1013.14
2018-03-02T10:31:34.167Z,1013.04
2018-03-02T10:33:01.197Z,1013.06
2018-03-02T10:34:28.022Z,1013.03
2018-03-02T10:36:02.824Z,1013.04
2018-03-02T10:37:21.483Z,1013.05
2018-03-02T10:38:48.424Z,1013.01
2018-03-02T10:40:15.299Z,1013.10
2018-03-02T10:41:42.309Z,1013.04
2018-03-02T10:43:09.097Z,1013.11
2018-03-02T10:44:35.903Z,1013.06
2018-03-02T10:46:02.767Z,1013.03
2018-03-02T10:47:29.634Z,1012.99
2018-03-02T10:48:56.521Z,1012.88
2018-03-02T10:50:23.437Z,1012.93
2018-03-02T10:51:50.264Z,1012.86
2018-03-02T10:53:17.228Z,1012.85
2018-03-02T10:54:44.171Z,1012.84
2018-03-02T10:56:10.995Z,1012.88
2018-03-02T10:57:38.032Z,1012.84
2018-03-02T10:59:04.740Z,1012.83
2018-03-02T11:00:31.416Z,1012.83
2018-03-02T11:01:57.998Z,1012.84
2018-03-02T11:03:24.966Z,1012.80
2018-03-02T11:04:51.705Z,1012.77
2018-03-02T11:06:18.643Z,1012.77
2018-03-02T11:07:45.647Z,1012.79
2018-03-02T11:09:12.721Z,1012.79
2018-03-02T11:10:39.558Z,1012.77
2018-03-02T11:12:06.473Z,1012.72
2018-03-02T11:13:33.097Z,1012.70
2018-03-02T11:14:59.937Z,1012.63
2018-03-02T11:16:26.788Z,1012.59
2018-03-02T11:17:53.820Z,1012.56
2018-03-02T11:19:20.627Z,1012.55
2018-03-02T11:20:47.655Z,1012.51
2018-03-02T11:22:14.577Z,1012.52
2018-03-02T11:23:41.492Z,1012.53
2018-03-02T11:25:08.379Z,1012.49
2018-03-02T11:26:35.156Z,1012.44
2018-03-02T11:28:02.091Z,1012.43
2018-03-02T11:29:28.967Z,1012.40
2018-03-02T11:30:55.856Z,1012.38
2018-03-02T11:32:22.726Z,1012.36
2018-03-02T11:33:49.672Z,1012.34
2018-03-02T11:35:16.649Z,1012.34
2018-03-02T11:36:43.582Z,1012.33
2018-03-02T11:38:10.488Z,1012.35
2018-03-02T11:39:37.339Z,1012.34
2018-03-02T11:41:04.242Z,1012.30
2018-03-02T11:42:31.186Z,1012.32
2018-03-02T11:43:57.953Z,1012.29
2018-03-02T11:45:24.937Z,1012.23
2018-03-02T11:46:51.915Z,1012.17
2018-03-02T11:48:18.655Z,1012.14
2018-03-02T11:49:45.588Z,1012.12
2018-03-02T11:51:12.583Z,1012.11
2018-03-02T11:52:39.559Z,1012.09
2018-03-02T11:54:06.331Z,1012.09
2018-03-02T11:55:33.221Z,1012.06
2018-03-02T11:57:00.226Z,1012.08
2018-03-02T11:58:27.122Z,1012.05
2018-03-02T11:59:54.004Z,1012.02
2018-03-02T12:01:20.947Z,1011.99
2018-03-02T12:02:48.066Z,1011.98
2018-03-02T12:04:15.063Z,1012.02
2018-03-02T12:05:41.833Z,1011.98
2018-03-02T12:07:08.784Z,1011.93
2018-03-02T12:08:35.829Z,1011.94
2018-03-02T12:10:02.644Z,1011.87
2018-03-02T12:11:29.743Z,1011.83
2018-03-02T12:12:56.648Z,1011.75
2018-03-02T12:14:23.691Z,1011.76
2018-03-02T12:15:50.732Z,1011.74
2018-03-02T12:17:17.692Z,1011.78
2018-03-02T12:18:44.646Z,1011.78
2018-03-02T12:20:11.613Z,1011.80
2018-03-02T12:21:38.732Z,1011.79
2018-03-02T12:23:05.545Z,1011.77
2018-03-02T12:24:32.078Z,1011.74
2018-03-02T12:25:58.951Z,1011.74
2018-03-02T12:27:25.909Z,1011.71
2018-03-02T12:28:52.909Z,1011.67
2018-03-02T12:30:20.019Z,1011.66
2018-03-02T12:31:46.950Z,1011.62
2018-03-02T12:33:13.674Z,1011.61
2018-03-02T12:34:40.499Z,1011.55
2018-03-02T12:36:07.542Z,1011.56
2018-03-02T12:37:34.492Z,1011.54
2018-03-02T12:39:01.471Z,1011.56
2018-03-02T12:40:28.434Z,1011.54
2018-03-02T12:41:55.470Z,1011.54
2018-03-02T12:43:22.533Z,1011.53
2018-03-02T12:44:49.550Z,1011.53
2018-03-02T12:46:16.405Z,1011.53
2018-03-02T12:47:43.374Z,1011.51
2018-03-02T12:49:10.249Z,1011.54
2018-03-02T12:50:37.103Z,1011.51
2018-03-02T12:52:04.030Z,1011.45
2018-03-02T12:53:31.075Z,1011.42
2018-03-02T12:54:58.161Z,1011.38
2018-03-02T12:56:25.219Z,1011.39
2018-03-02T12:57:52.076Z,1011.41
2018-03-02T12:59:19.025Z,1011.37
2018-03-02T13:00:46.083Z,1011.35
2018-03-02T13:02:13.087Z,1011.31
2018-03-02T13:03:40.168Z,1011.28
2018-03-02T13:05:07.021Z,1011.25
2018-03-02T13:06:33.905Z,1011.31
2018-03-02T13:08:00.949Z,1011.29
2018-03-02T13:09:27.702Z,1011.31
2018-03-02T13:10:54.643Z,1011.25
2018-03-02T13:12:21.970Z,1011.25
2018-03-02T13:13:48.764Z,1011.25
2018-03-02T13:15:15.766Z,1011.27
2018-03-02T13:16:42.715Z,1011.25
2018-03-02T13:18:09.707Z,1011.24
2018-03-02T13:19:36.677Z,1011.22
2018-03-02T13:21:03.429Z,1011.20
2018-03-02T13:22:30.536Z,1011.24
2018-03-02T13:23:57.338Z,1011.22
2018-03-02T13:25:24.151Z,1011.22
2018-03-02T13:26:51.146Z,1011.25
2018-03-02T13:28:18.087Z,1011.24
2018-03-02T13:29:45.103Z,1011.31
2018-03-02T13:31:12.327Z,1011.32
2018-03-02T13:32:39.448Z,1011.26
2018-03-02T13:34:06.195Z,1011.29
2018-03-02T13:35:33.067Z,1011.26
2018-03-02T13:37:00.057Z,1011.29
2018-03-02T13:38:27.055Z,1011.23
2018-03-02T13:39:53.996Z,1011.23
2018-03-02T13:41:20.951Z,1011.23
2018-03-02T13:42:47.930Z,1011.27
2018-03-02T13:44:14.710Z,1011.29
2018-03-02T13:45:41.770Z,1011.27
2018-03-02T13:47:08.616Z,1011.30
2018-03-02T13:48:35.458Z,1011.29
2018-03-02T13:50:02.671Z,1011.26
2018-03-02T13:51:29.668Z,1011.31
2018-03-02T13:52:56.771Z,1011.36
2018-03-02T13:54:23.550Z,1011.40
2018-03-02T13:55:50.628Z,1011.42
2018-03-02T13:57:17.625Z,1011.45
2018-03-02T13:58:44.705Z,1011.42
2018-03-02T14:00:11.622Z,1011.40
2018-03-02T14:01:38.335Z,1011.39
2018-03-02T14:03:05.158Z,1011.35
2018-03-02T14:04:32.123Z,1011.33
2018-03-02T14:05:59.052Z,1011.37
2018-03-02T14:07:25.991Z,1011.34
2018-03-02T14:08:53.058Z,1011.34
2018-03-02T14:10:19.934Z,1011.34
2018-03-02T14:11:46.706Z,1011.32
2018-03-02T14:13:13.585Z,1011.26
2018-03-02T14:14:40.479Z,1011.28
2018-03-02T14:16:07.614Z,1011.21
2018-03-02T14:17:34.164Z,1011.22
2018-03-02T14:19:01.112Z,1011.24
2018-03-02T14:20:28.084Z,1011.23
2018-03-02T14:21:54.825Z,1011.18
2018-03-02T14:23:21.812Z,1011.21
2018-03-02T14:24:48.327Z,1011.18
2018-03-02T14:26:15.469Z,1011.14
2018-03-02T14:27:42.238Z,1011.10
2018-03-02T14:29:09.103Z,1011.11
2018-03-02T14:30:36.059Z,1011.12
2018-03-02T14:32:02.773Z,1011.12
2018-03-02T14:33:29.792Z,1011.11
2018-03-02T14:34:56.810Z,1011.09
2018-03-02T14:36:23.800Z,1011.06
2018-03-02T14:37:50.555Z,1011.04
2018-03-02T14:39:17.440Z,1011.07
2018-03-02T14:40:44.517Z,1011.09
2018-03-02T14:42:11.346Z,1011.09
2018-03-02T14:43:38.344Z,1011.09
2018-03-02T14:45:05.104Z,1011.08
2018-03-02T14:46:32.116Z,1011.09
2018-03-02T14:47:59.009Z,1011.06
2018-03-02T14:49:25.850Z,1011.09
2018-03-02T14:50:52.635Z,1011.10
2018-03-02T14:52:19.520Z,1011.09
2018-03-02T14:53:46.443Z,1011.09
2018-03-02T14:55:13.145Z,1011.07
2018-03-02T14:56:40.089Z,1011.09
2018-03-02T14:58:07.067Z,1011.02
2018-03-02T14:59:33.746Z,1011.02
2018-03-02T15:01:00.755Z,1010.99
2018-03-02T15:02:27.877Z,1011.01
2018-03-02T15:03:54.675Z,1011.04
2018-03-02T15:05:21.636Z,1011.00
2018-03-02T15:06:48.336Z,1011.04
2018-03-02T15:08:15.381Z,1011.00
2018-03-02T15:09:42.127Z,1010.99
2018-03-02T15:11:09.108Z,1011.00
2018-03-02T15:12:35.905Z,1011.01
2018-03-02T15:14:02.805Z,1011.00
2018-03-02T15:15:29.791Z,1011.00
2018-03-02T15:16:56.682Z,1011.01
2018-03-02T15:18:23.739Z,1011.02
2018-03-02T15:19:50.708Z,1011.00
2018-03-02T15:21:17.758Z,1011.02
2018-03-02T15:22:44.547Z,1011.00
2018-03-02T15:24:11.467Z,1011.01
2018-03-02T15:25:38.248Z,1011.02
2018-03-02T15:27:04.963Z,1011.04
2018-03-02T15:28:31.848Z,1011.03
2018-03-02T15:29:58.839Z,1011.03
2018-03-02T15:31:25.607Z,1011.01
2018-03-02T15:32:52.491Z,1010.99
2018-03-02T15:34:19.602Z,1011.00
2018-03-02T15:35:46.392Z,1010.98
2018-03-02T15:37:13.342Z,1011.00
2018-03-02T15:38:40.037Z,1011.00
2018-03-02T15:40:06.910Z,1011.02
2018-03-02T15:41:33.813Z,1011.06
2018-03-02T15:43:00.541Z,1011.07
2018-03-02T15:44:27.418Z,1011.06
2018-03-02T15:45:54.235Z,1011.03
2018-03-02T15:47:21.107Z,1011.04
2018-03-02T15:48:48.065Z,1011.00
2018-03-02T15:50:15.100Z,1011.03
2018-03-02T15:51:41.940Z,1011.03
2018-03-02T15:53:08.771Z,1011.02
2018-03-02T15:54:35.687Z,1011.04
2018-03-02T15:56:02.581Z,1011.03
2018-03-02T15:57:29.585Z,1011.02
2018-03-02T15:58:56.412Z,1011.05
2018-03-02T16:00:23.571Z,1011.05
2018-03-02T16:01:50.381Z,1011.08
2018-03-02T16:03:17.171Z,1011.12
2018-03-02T16:04:44.032Z,1011.13
2018-03-02T16:06:10.850Z,1011.14
2018-03-02T16:07:37.854Z,1011.15
2018-03-02T16:09:04.609Z,1011.17
2018-03-02T16:10:31.645Z,1011.19
2018-03-02T16:11:58.644Z,1011.21
2018-03-02T16:13:25.507Z,1011.29
2018-03-02T16:14:52.384Z,1011.33
2018-03-02T16:16:19.103Z,1011.34
2018-03-02T16:17:45.644Z,1011.35
2018-03-02T16:19:12.537Z,1011.35
2018-03-02T16:20:39.416Z,1011.35
2018-03-02T16:22:06.394Z,1011.34
2018-03-02T16:23:32.948Z,1011.35
2018-03-02T16:24:59.830Z,1011.34
2018-03-02T16:26:26.581Z,1011.35
2018-03-02T16:27:53.475Z,1011.35
2018-03-02T16:29:23.130Z,1011.36
2018-03-02T16:30:47.063Z,1011.38
2018-03-02T16:32:14.051Z,1011.42
2018-03-02T16:33:40.677Z,1011.43
2018-03-02T16:35:07.429Z,1011.42
2018-03-02T16:36:34.109Z,1011.41
2018-03-02T16:38:01.014Z,1011.43
2018-03-02T16:39:27.876Z,1011.43
2018-03-02T16:40:54.594Z,1011.45
2018-03-02T16:42:21.620Z,1011.46
2018-03-02T16:43:48.227Z,1011.44
2018-03-02T16:45:15.176Z,1011.46
2018-03-02T16:46:42.093Z,1011.44
2018-03-02T16:48:08.701Z,1011.48
2018-03-02T16:49:35.581Z,1011.49
2018-03-02T16:51:02.585Z,1011.50
2018-03-02T16:52:29.711Z,1011.50
2018-03-02T16:53:56.512Z,1011.50
2018-03-02T16:55:23.269Z,1011.51
2018-03-02T16:56:50.328Z,1011.52
2018-03-02T16:58:17.311Z,1011.52
2018-03-02T16:59:44.120Z,1011.55
2018-03-02T17:01:11.825Z,1011.55
2018-03-02T17:02:37.801Z,1011.58
2018-03-02T17:04:04.385Z,1011.61
2018-03-02T17:05:31.106Z,1011.61
2018-03-02T17:06:57.776Z,1011.60
2018-03-02T17:08:24.826Z,1011.60
2018-03-02T17:09:51.890Z,1011.62
2018-03-02T17:11:18.588Z,1011.62
2018-03-02T17:12:45.565Z,1011.64
2018-03-02T17:14:12.541Z,1011.65
2018-03-02T17:15:39.415Z,1011.69
2018-03-02T17:17:07.213Z,1011.71
2018-03-02T17:18:32.703Z,1011.71
2018-03-02T17:19:59.531Z,1011.72
2018-03-02T17:21:26.238Z,1011.70
2018-03-02T17:22:52.738Z,1011.71
2018-03-02T17:24:19.602Z,1011.75
2018-03-02T17:25:46.387Z,1011.75
2018-03-02T17:27:13.598Z,1011.76
2018-03-02T17:28:39.534Z,1011.77
2018-03-02T17:30:06.354Z,1011.77
2018-03-02T17:31:33.036Z,1011.78